Time;durP1;ratioP1;P1;durP2;ratioP2;P2;SDS_P1;SDS_P2;PMS_P1;PMS_P2;Temp;Humidity;BMP_temperature;BMP_pressure;BME280_temperature;BME280_humidity;BME280_pressure;Samples;Min_cycle;Max_cycle;Signal;HPM_P1;HPM_P2
2024/01/07 00:02:09;;;;;;;3.40;2.47;;;10.20;86.10;;;;;;4953129;28;20206;-90
2024/01/07 00:04:38;;;;;;;6.00;2.73;;;10.20;86.10;;;;;;4951827;28;20660;-91
2024/01/07 00:07:06;;;;;;;5.00;3.30;;;10.30;86.00;;;;;;4956821;28;20202;-84
2024/01/07 00:09:35;;;;;;;2.83;2.50;;;10.30;86.60;;;;;;4955301;28;20215;-84
2024/01/07 00:12:04;;;;;;;1.83;1.67;;;10.40;86.60;;;;;;4949194;28;20221;-84
2024/01/07 00:14:34;;;;;;;4.87;3.83;;;10.40;87.20;;;;;;4950624;28;20294;-84
2024/01/07 00:17:03;;;;;;;4.40;3.93;;;10.40;86.90;;;;;;4954470;28;20419;-84
2024/01/07 00:19:32;;;;;;;3.73;3.33;;;10.50;87.60;;;;;;4950972;28;20278;-90
2024/01/07 00:22:00;;;;;;;3.37;2.60;;;10.50;87.30;;;;;;4953104;28;20250;-91
2024/01/07 00:24:29;;;;;;;4.37;3.97;;;10.50;87.20;;;;;;4954713;28;20250;-91
2024/01/07 00:26:58;;;;;;;5.07;3.23;;;10.50;87.40;;;;;;4949789;28;20217;-88
2024/01/07 00:29:26;;;;;;;2.63;2.43;;;10.50;87.30;;;;;;4956228;28;21780;-88
2024/01/07 00:31:56;;;;;;;5.20;3.23;;;10.60;87.20;;;;;;4953071;28;20213;-88
2024/01/07 00:34:25;;;;;;;6.17;4.40;;;10.50;87.20;;;;;;4952608;28;20249;-89
2024/01/07 00:36:54;;;;;;;4.20;3.53;;;10.50;87.00;;;;;;4950922;29;20234;-88
2024/01/07 00:39:22;;;;;;;3.73;2.60;;;10.50;87.10;;;;;;4950127;28;20199;-86
2024/01/07 00:41:51;;;;;;;6.17;3.37;;;10.50;87.40;;;;;;4964711;28;20261;-90
2024/01/07 00:44:20;;;;;;;4.27;3.40;;;10.50;87.10;;;;;;4954417;28;20226;-90
2024/01/07 00:46:48;;;;;;;4.30;2.80;;;10.50;86.90;;;;;;4948725;28;20565;-87
2024/01/07 00:49:19;;;;;;;2.90;2.57;;;10.50;86.70;;;;;;4957055;28;20229;-88
2024/01/07 00:51:47;;;;;;;2.17;1.83;;;10.60;86.60;;;;;;4960966;28;20195;-87
2024/01/07 00:54:16;;;;;;;6.80;5.93;;;10.60;86.90;;;;;;4956020;28;20206;-86
2024/01/07 00:56:45;;;;;;;6.77;4.80;;;10.50;87.40;;;;;;4955386;28;20203;-87
2024/01/07 00:59:13;;;;;;;5.30;4.33;;;10.60;87.30;;;;;;4953200;28;20424;-87
2024/01/07 01:01:43;;;;;;;4.57;4.13;;;10.60;87.20;;;;;;4956476;28;20225;-86
2024/01/07 01:04:12;;;;;;;5.20;4.33;;;10.60;87.70;;;;;;4950394;28;20233;-86
2024/01/07 01:06:42;;;;;;;3.33;3.03;;;10.60;86.90;;;;;;4953666;28;20657;-87
2024/01/07 01:09:11;;;;;;;5.60;3.93;;;10.60;86.70;;;;;;4955314;28;20787;-86
2024/01/07 01:11:40;;;;;;;9.10;4.10;;;10.50;86.90;;;;;;4954617;28;20241;-87
2024/01/07 01:14:09;;;;;;;8.90;3.83;;;10.50;87.00;;;;;;4952938;28;20198;-86
2024/01/07 01:16:37;;;;;;;3.47;2.93;;;10.50;87.30;;;;;;4952264;28;20201;-89
2024/01/07 01:19:06;;;;;;;4.13;3.80;;;10.50;87.50;;;;;;4955966;28;20301;-89
2024/01/07 01:21:35;;;;;;;6.30;4.50;;;10.50;87.10;;;;;;4951879;28;20217;-90
2024/01/07 01:24:05;;;;;;;3.30;3.00;;;10.50;87.20;;;;;;4949221;28;20206;-90
2024/01/07 01:26:34;;;;;;;19.13;5.10;;;10.50;87.10;;;;;;4949362;28;20210;-88
2024/01/07 01:29:02;;;;;;;9.63;4.97;;;10.50;87.20;;;;;;4951612;28;20202;-88
2024/01/07 01:31:31;;;;;;;5.03;3.93;;;10.50;87.20;;;;;;4951585;28;20265;-89
2024/01/07 01:34:00;;;;;;;5.47;3.67;;;10.50;87.10;;;;;;4952636;28;20206;-83
2024/01/07 01:36:29;;;;;;;5.43;4.30;;;10.50;87.20;;;;;;4949775;28;20206;-83
2024/01/07 01:38:57;;;;;;;3.73;3.43;;;10.50;87.10;;;;;;4953574;28;20281;-83
2024/01/07 01:41:27;;;;;;;11.00;5.33;;;10.40;87.10;;;;;;4947719;28;20263;-83
2024/01/07 01:43:58;;;;;;;14.57;4.23;;;10.40;87.20;;;;;;4950910;28;20209;-82
2024/01/07 01:46:29;;;;;;;5.03;4.53;;;10.30;87.70;;;;;;4957717;28;20260;-83
2024/01/07 01:48:59;;;;;;;5.50;3.83;;;10.40;87.80;;;;;;4958537;28;20194;-82
2024/01/07 01:51:28;;;;;;;9.83;6.17;;;10.40;87.60;;;;;;4949809;28;20214;-80
2024/01/07 01:53:58;;;;;;;9.90;4.20;;;10.30;88.20;;;;;;4952382;28;20533;-80
2024/01/07 01:56:29;;;;;;;5.97;3.17;;;10.30;88.00;;;;;;4964345;28;20206;-81
2024/01/07 01:58:58;;;;;;;3.13;2.93;;;10.30;88.50;;;;;;4951442;28;22195;-81
2024/01/07 02:01:27;;;;;;;6.50;3.57;;;10.30;88.80;;;;;;4951336;28;20202;-81
2024/01/07 02:03:56;;;;;;;3.73;3.43;;;10.30;88.60;;;;;;4951480;28;20721;-80
2024/01/07 02:06:25;;;;;;;7.43;5.70;;;10.20;89.40;;;;;;4958327;28;20199;-81
2024/01/07 02:08:54;;;;;;;6.67;3.37;;;10.20;89.40;;;;;;4948136;28;20284;-80
2024/01/07 02:11:25;;;;;;;4.57;3.73;;;10.20;89.80;;;;;;4952778;28;20710;-81
2024/01/07 02:13:55;;;;;;;16.90;5.33;;;10.20;89.50;;;;;;4952845;28;20632;-81
2024/01/07 02:16:24;;;;;;;3.70;2.43;;;10.10;90.00;;;;;;4953509;28;20198;-82
2024/01/07 02:18:53;;;;;;;10.13;6.83;;;10.10;90.00;;;;;;4945800;28;20317;-82
2024/01/07 02:21:22;;;;;;;5.60;3.60;;;10.10;90.10;;;;;;4956635;28;20198;-82
2024/01/07 02:23:50;;;;;;;6.93;3.27;;;10.10;90.10;;;;;;4955073;28;20212;-84
2024/01/07 02:26:20;;;;;;;4.30;3.97;;;10.10;90.10;;;;;;4955422;28;20218;-85
2024/01/07 02:28:49;;;;;;;7.53;4.47;;;10.20;90.10;;;;;;4952901;28;20234;-91
2024/01/07 02:31:18;;;;;;;3.00;2.80;;;10.10;90.10;;;;;;4959820;28;20203;-90
2024/01/07 02:33:55;;;;;;;4.50;3.47;;;10.10;90.20;;;;;;4959655;28;20205;-89
2024/01/07 02:36:24;;;;;;;4.83;3.93;;;10.20;90.10;;;;;;4959927;28;20202;-84
2024/01/07 02:38:53;;;;;;;6.10;2.73;;;10.20;90.00;;;;;;4954652;28;20218;-83
2024/01/07 02:41:25;;;;;;;9.53;5.30;;;10.20;89.70;;;;;;4953748;28;20211;-84
2024/01/07 02:43:54;;;;;;;4.53;3.53;;;10.20;90.00;;;;;;4951805;28;20197;-85
2024/01/07 02:46:23;;;;;;;3.40;2.93;;;10.20;90.10;;;;;;4953044;28;20233;-85
2024/01/07 02:48:52;;;;;;;7.77;4.13;;;10.20;90.10;;;;;;4955804;29;20541;-83
2024/01/07 02:51:21;;;;;;;3.13;2.80;;;10.20;90.10;;;;;;4959076;29;20204;-89
2024/01/07 02:53:49;;;;;;;6.97;4.20;;;10.20;90.10;;;;;;4958471;28;20202;-90
2024/01/07 02:56:19;;;;;;;7.53;4.20;;;10.20;90.00;;;;;;4956631;29;20198;-84
2024/01/07 02:58:49;;;;;;;5.83;4.40;;;10.20;90.10;;;;;;4954735;28;20245;-85
2024/01/07 03:01:17;;;;;;;4.67;2.93;;;10.20;90.10;;;;;;4949042;28;20207;-84
2024/01/07 03:03:46;;;;;;;4.07;3.33;;;10.20;90.10;;;;;;4955884;28;20210;-86
2024/01/07 03:06:15;;;;;;;7.67;5.50;;;10.10;90.10;;;;;;4956603;28;20210;-86
2024/01/07 03:08:46;;;;;;;5.77;3.63;;;10.10;90.10;;;;;;4959614;28;20199;-87
2024/01/07 03:11:14;;;;;;;3.87;2.63;;;10.10;90.20;;;;;;4957348;28;20227;-87
2024/01/07 03:13:43;;;;;;;4.20;3.87;;;10.10;90.20;;;;;;4952839;28;20203;-87
2024/01/07 03:16:22;;;;;;;3.43;2.87;;;10.10;90.10;;;;;;4956578;28;20206;-85
2024/01/07 03:18:51;;;;;;;4.30;2.73;;;10.20;90.10;;;;;;4955940;28;20253;-86
2024/01/07 03:21:23;;;;;;;3.53;2.97;;;10.20;90.20;;;;;;4950857;28;20193;-88
2024/01/07 03:23:52;;;;;;;3.60;2.03;;;10.20;90.10;;;;;;4954044;28;20221;-84
2024/01/07 03:26:21;;;;;;;4.30;2.27;;;10.30;90.00;;;;;;4954564;28;20207;-89
2024/01/07 03:28:50;;;;;;;8.40;5.27;;;10.30;90.00;;;;;;4960305;28;20209;-89
2024/01/07 03:31:23;;;;;;;2.80;2.60;;;10.30;89.90;;;;;;4957798;28;20209;-89
2024/01/07 03:33:51;;;;;;;6.27;4.33;;;10.30;89.80;;;;;;4956418;28;20214;-89
2024/01/07 03:36:20;;;;;;;3.63;3.33;;;10.30;89.70;;;;;;4958271;28;20271;-88
2024/01/07 03:38:49;;;;;;;10.80;3.00;;;10.30;89.80;;;;;;4957392;28;20285;-88
2024/01/07 03:41:18;;;;;;;5.13;2.33;;;10.30;89.90;;;;;;4956592;28;20240;-86
2024/01/07 03:43:48;;;;;;;3.03;2.73;;;10.30;89.80;;;;;;4947999;28;20705;-84
2024/01/07 03:46:17;;;;;;;4.87;3.90;;;10.30;90.10;;;;;;4958306;28;20199;-91
2024/01/07 03:48:47;;;;;;;1.97;1.87;;;10.30;90.00;;;;;;4955330;28;20301;-89
2024/01/07 03:51:17;;;;;;;2.77;1.73;;;10.20;90.00;;;;;;4957963;28;20206;-90
2024/01/07 03:53:45;;;;;;;2.43;2.20;;;10.30;90.00;;;;;;4955801;28;20647;-87
2024/01/07 03:56:14;;;;;;;7.20;3.23;;;10.30;89.80;;;;;;4951681;28;20559;-85
2024/01/07 03:58:42;;;;;;;6.87;3.07;;;10.30;90.00;;;;;;4959366;28;20285;-85
2024/01/07 04:01:11;;;;;;;2.23;2.13;;;10.30;90.00;;;;;;4954410;28;20639;-89
2024/01/07 04:03:39;;;;;;;5.33;2.97;;;10.30;90.00;;;;;;4957251;28;20203;-90
2024/01/07 04:06:09;;;;;;;2.27;2.17;;;10.30;89.90;;;;;;4952715;28;20198;-89
2024/01/07 04:08:38;;;;;;;2.70;2.50;;;10.30;90.00;;;;;;4955171;28;20194;-89
2024/01/07 04:11:07;;;;;;;7.87;4.17;;;10.30;90.10;;;;;;4955511;28;20206;-89
2024/01/07 04:13:35;;;;;;;5.23;3.70;;;10.30;90.20;;;;;;4956986;28;20237;-90
2024/01/07 04:16:05;;;;;;;3.90;2.23;;;10.30;90.10;;;;;;4958084;28;20628;-90
2024/01/07 04:18:34;;;;;;;3.83;3.53;;;10.30;90.00;;;;;;4955597;28;20186;-90
2024/01/07 04:21:02;;;;;;;2.00;1.90;;;10.40;90.10;;;;;;4950736;28;20691;-90
2024/01/07 04:23:33;;;;;;;1.57;1.47;;;10.40;90.10;;;;;;4955780;28;20233;-85
2024/01/07 04:26:01;;;;;;;6.63;3.10;;;10.40;90.20;;;;;;4957352;28;20238;-84
2024/01/07 04:28:30;;;;;;;3.57;3.27;;;10.40;90.20;;;;;;4953050;28;20207;-87
2024/01/07 04:30:59;;;;;;;6.97;4.30;;;10.40;90.20;;;;;;4961593;28;20257;-83
2024/01/07 04:33:27;;;;;;;2.97;1.93;;;10.40;90.30;;;;;;4957380;28;20206;-83
2024/01/07 04:35:58;;;;;;;4.63;3.53;;;10.40;90.20;;;;;;4959509;28;20183;-84
2024/01/07 04:38:26;;;;;;;3.27;2.97;;;10.40;90.20;;;;;;4958256;28;20313;-83
2024/01/07 04:41:06;;;;;;;6.73;3.33;;;10.50;90.20;;;;;;4958320;28;20231;-81
2024/01/07 04:43:37;;;;;;;2.90;2.10;;;10.50;90.40;;;;;;4946989;28;20253;-83
2024/01/07 04:46:06;;;;;;;3.23;2.93;;;10.50;90.50;;;;;;4950277;28;20213;-84
2024/01/07 04:48:35;;;;;;;7.77;4.07;;;10.50;90.60;;;;;;4961386;28;20221;-82
2024/01/07 04:51:04;;;;;;;4.47;3.37;;;10.50;90.60;;;;;;4946892;28;20225;-80
2024/01/07 04:53:32;;;;;;;2.83;2.33;;;10.50;90.80;;;;;;4951466;28;20201;-81
2024/01/07 04:56:02;;;;;;;3.60;3.30;;;10.50;90.90;;;;;;4953429;28;20214;-81
2024/01/07 04:58:31;;;;;;;7.57;2.43;;;10.50;91.00;;;;;;4954103;28;20210;-81
2024/01/07 05:00:59;;;;;;;3.67;2.60;;;10.50;90.80;;;;;;4953880;28;20225;-80
2024/01/07 05:03:32;;;;;;;7.73;3.03;;;10.60;90.70;;;;;;4950270;28;20200;-81
2024/01/07 05:06:01;;;;;;;4.13;2.00;;;10.60;90.80;;;;;;4944080;28;20198;-80
2024/01/07 05:08:30;;;;;;;3.50;3.07;;;10.60;90.90;;;;;;4938073;28;20217;-80
2024/01/07 05:10:59;;;;;;;1.80;1.53;;;10.50;91.10;;;;;;4946385;28;20246;-80
2024/01/07 05:13:29;;;;;;;6.30;2.00;;;10.50;90.90;;;;;;4955890;28;20210;-78
2024/01/07 05:15:57;;;;;;;2.43;2.00;;;10.50;90.90;;;;;;4954175;28;20206;-80
2024/01/07 05:18:26;;;;;;;2.40;2.20;;;10.60;90.80;;;;;;4964645;28;20201;-79
2024/01/07 05:20:55;;;;;;;8.50;2.00;;;10.50;91.40;;;;;;4953057;28;20706;-80
2024/01/07 05:23:24;;;;;;;3.53;2.60;;;10.50;91.40;;;;;;4959564;28;20249;-79
2024/01/07 05:25:52;;;;;;;2.90;2.47;;;10.50;91.40;;;;;;4953891;28;20218;-81
2024/01/07 05:28:21;;;;;;;4.30;2.63;;;10.50;91.30;;;;;;4947903;28;20210;-81
2024/01/07 05:30:51;;;;;;;3.57;2.70;;;10.60;91.40;;;;;;4947239;28;20209;-80
2024/01/07 05:33:22;;;;;;;4.83;3.70;;;10.50;91.70;;;;;;4947790;28;20198;-83
2024/01/07 05:35:51;;;;;;;4.27;2.47;;;10.50;91.80;;;;;;4963328;28;20257;-81
2024/01/07 05:38:20;;;;;;;3.20;2.07;;;10.50;91.80;;;;;;4953597;28;20216;-82
2024/01/07 05:40:49;;;;;;;5.97;3.97;;;10.50;91.80;;;;;;4947688;28;20768;-80
2024/01/07 05:43:17;;;;;;;1.90;1.73;;;10.50;91.70;;;;;;4950077;28;20195;-81
2024/01/07 05:45:46;;;;;;;3.80;2.07;;;10.50;91.80;;;;;;4954616;28;20635;-83
2024/01/07 05:48:16;;;;;;;5.20;2.20;;;10.50;92.10;;;;;;4955419;28;20243;-81
2024/01/07 05:50:45;;;;;;;3.47;3.13;;;10.50;92.00;;;;;;4951460;28;20234;-81
2024/01/07 05:53:14;;;;;;;5.97;3.83;;;10.50;92.20;;;;;;4947596;28;20202;-81
2024/01/07 05:55:42;;;;;;;4.20;1.97;;;10.50;92.20;;;;;;4957667;28;20204;-82
2024/01/07 05:58:14;;;;;;;3.07;2.23;;;10.50;92.30;;;;;;4959400;28;20195;-84
2024/01/07 06:00:43;;;;;;;2.20;2.03;;;10.50;92.40;;;;;;4956808;28;20313;-82
2024/01/07 06:03:12;;;;;;;2.43;2.23;;;10.40;92.60;;;;;;4959474;28;20266;-81
2024/01/07 06:05:42;;;;;;;2.50;2.30;;;10.40;92.80;;;;;;4954555;28;20198;-83
2024/01/07 06:08:11;;;;;;;4.00;2.40;;;10.40;92.80;;;;;;4953107;28;20210;-82
2024/01/07 06:10:40;;;;;;;1.43;1.33;;;10.30;92.90;;;;;;4950965;28;20202;-82
2024/01/07 06:13:08;;;;;;;6.73;1.97;;;10.40;92.80;;;;;;4946979;28;20215;-82
2024/01/07 06:15:37;;;;;;;2.07;1.97;;;10.30;93.10;;;;;;4958820;28;20209;-82
2024/01/07 06:18:06;;;;;;;5.43;2.93;;;10.30;93.00;;;;;;4953217;28;20210;-84
2024/01/07 06:20:35;;;;;;;4.17;1.57;;;10.30;93.30;;;;;;4954397;28;20242;-83
2024/01/07 06:23:05;;;;;;;3.10;2.27;;;10.30;93.10;;;;;;4956021;28;20281;-83
2024/01/07 06:25:34;;;;;;;1.67;1.57;;;10.30;93.20;;;;;;4950090;28;20537;-84
2024/01/07 06:28:03;;;;;;;2.87;2.67;;;10.30;93.20;;;;;;4951758;28;20305;-83
2024/01/07 06:30:31;;;;;;;1.70;1.17;;;10.40;93.20;;;;;;4956076;28;20206;-83
2024/01/07 06:33:00;;;;;;;2.20;2.00;;;10.40;93.40;;;;;;4956512;28;20228;-80
2024/01/07 06:35:30;;;;;;;5.00;2.10;;;10.50;93.40;;;;;;4955148;28;20270;-83
2024/01/07 06:37:59;;;;;;;2.23;2.00;;;10.50;93.50;;;;;;4958817;28;20216;-82
2024/01/07 06:40:29;;;;;;;2.43;1.57;;;10.50;93.40;;;;;;4954311;28;20218;-80
2024/01/07 06:42:58;;;;;;;3.70;3.17;;;10.60;93.50;;;;;;4952469;28;20281;-81
2024/01/07 06:45:26;;;;;;;3.57;3.20;;;10.60;93.80;;;;;;4954394;28;20314;-79
2024/01/07 06:47:55;;;;;;;1.57;1.47;;;10.60;93.70;;;;;;4946277;28;20321;-82
2024/01/07 06:50:25;;;;;;;5.80;3.53;;;10.60;93.70;;;;;;4950065;28;20295;-81
2024/01/07 06:52:54;;;;;;;2.20;1.97;;;10.70;94.00;;;;;;4950053;28;20715;-85
2024/01/07 06:55:23;;;;;;;3.27;2.03;;;10.70;93.90;;;;;;4957492;28;20289;-83
2024/01/07 06:57:54;;;;;;;2.83;2.13;;;10.70;94.00;;;;;;4949846;28;20195;-85
2024/01/07 07:00:23;;;;;;;2.83;2.03;;;10.80;94.00;;;;;;4954232;28;20515;-87
2024/01/07 07:02:51;;;;;;;4.57;1.73;;;10.80;93.80;;;;;;4950082;28;20289;-87
2024/01/07 07:05:20;;;;;;;6.20;2.90;;;10.90;93.90;;;;;;4957880;28;20293;-84
2024/01/07 07:07:49;;;;;;;5.70;2.80;;;10.90;93.80;;;;;;4952395;28;20241;-83
2024/01/07 07:10:21;;;;;;;0.60;0.60;;;10.90;93.80;;;;;;4949481;28;20199;-85
2024/01/07 07:12:52;;;;;;;1.70;1.03;;;10.90;94.00;;;;;;4953109;28;20619;-85
2024/01/07 07:15:20;;;;;;;3.63;3.10;;;10.90;93.90;;;;;;4952694;28;20260;-85
2024/01/07 07:17:49;;;;;;;3.47;2.37;;;11.00;93.90;;;;;;4947872;28;20241;-83
2024/01/07 07:20:17;;;;;;;1.93;1.77;;;10.90;94.00;;;;;;4945696;28;20215;-81
2024/01/07 07:22:46;;;;;;;3.50;2.30;;;10.90;94.10;;;;;;4955852;29;20253;-89
2024/01/07 07:25:15;;;;;;;5.93;2.40;;;10.90;94.20;;;;;;4950439;29;20221;-83
2024/01/07 07:27:47;;;;;;;1.90;1.80;;;10.90;94.10;;;;;;4947725;28;20321;-80
2024/01/07 07:30:17;;;;;;;3.33;3.03;;;10.90;94.10;;;;;;4945768;28;20194;-81
2024/01/07 07:32:46;;;;;;;4.03;3.67;;;10.90;94.10;;;;;;4954293;28;20206;-82
2024/01/07 07:35:15;;;;;;;4.43;2.07;;;11.00;94.10;;;;;;4958508;28;20206;-82
2024/01/07 07:37:44;;;;;;;3.40;2.63;;;11.00;94.20;;;;;;4955886;28;20616;-83
2024/01/07 07:40:13;;;;;;;4.13;3.33;;;11.00;94.20;;;;;;4950948;28;20241;-83
2024/01/07 07:42:43;;;;;;;4.17;2.27;;;11.10;94.10;;;;;;4946707;28;20579;-85
2024/01/07 07:45:12;;;;;;;6.47;4.37;;;11.10;94.20;;;;;;4953268;28;20210;-82
2024/01/07 07:47:44;;;;;;;5.77;2.70;;;11.10;94.00;;;;;;4959076;28;20212;-85
2024/01/07 07:50:14;;;;;;;5.00;3.63;;;11.10;94.00;;;;;;4949064;28;20555;-85
2024/01/07 07:52:43;;;;;;;3.33;2.20;;;11.10;93.90;;;;;;4952582;28;20262;-82
2024/01/07 07:55:12;;;;;;;3.63;2.53;;;11.10;94.00;;;;;;4954859;28;20222;-84
2024/01/07 07:57:44;;;;;;;8.13;3.67;;;11.20;94.10;;;;;;4956870;28;20294;-83
2024/01/07 08:00:13;;;;;;;4.67;3.73;;;11.10;94.20;;;;;;4952543;28;20230;-83
2024/01/07 08:02:45;;;;;;;2.53;2.33;;;11.10;94.10;;;;;;4951831;28;20237;-82
2024/01/07 08:05:14;;;;;;;8.90;3.13;;;11.10;94.10;;;;;;4950677;28;20216;-85
2024/01/07 08:07:44;;;;;;;3.07;2.27;;;11.20;94.00;;;;;;4950731;28;20201;-84
2024/01/07 08:10:13;;;;;;;4.30;2.77;;;11.20;94.30;;;;;;4957740;28;20203;-83
2024/01/07 08:12:41;;;;;;;3.23;2.50;;;11.10;94.40;;;;;;4961738;28;20206;-83
2024/01/07 08:15:10;;;;;;;2.17;1.90;;;11.20;94.40;;;;;;4959555;28;20851;-85
2024/01/07 08:17:39;;;;;;;2.47;2.20;;;11.20;94.30;;;;;;4960138;28;20195;-86
2024/01/07 08:20:11;;;;;;;4.80;4.20;;;11.10;94.50;;;;;;4962210;28;20581;-85
2024/01/07 08:22:43;;;;;;;7.37;1.80;;;11.20;94.60;;;;;;4961110;28;20222;-85
2024/01/07 08:25:13;;;;;;;1.80;1.40;;;11.20;94.60;;;;;;4959912;28;20242;-87
2024/01/07 08:27:43;;;;;;;10.80;3.80;;;11.20;94.40;;;;;;4953980;28;20209;-89
2024/01/07 08:30:13;;;;;;;3.10;2.73;;;11.30;94.40;;;;;;4954498;28;20206;-88
2024/01/07 08:32:45;;;;;;;1.97;1.77;;;11.30;94.50;;;;;;4956314;28;20191;-90
2024/01/07 08:35:16;;;;;;;2.33;2.13;;;11.30;94.40;;;;;;4964751;28;20214;-90
2024/01/07 08:37:47;;;;;;;4.17;2.27;;;11.30;94.50;;;;;;4964196;28;20194;-89
2024/01/07 08:40:19;;;;;;;2.07;1.90;;;11.30;94.50;;;;;;4952362;28;20207;-85
2024/01/07 08:42:48;;;;;;;2.83;1.83;;;11.30;94.50;;;;;;4947281;28;20226;-84
2024/01/07 08:45:16;;;;;;;10.10;1.90;;;11.30;94.60;;;;;;4956400;28;20199;-85
2024/01/07 08:47:45;;;;;;;2.73;1.77;;;11.30;94.60;;;;;;4956113;28;20210;-83
2024/01/07 08:50:16;;;;;;;3.63;2.20;;;11.40;94.50;;;;;;4957908;28;20261;-83
2024/01/07 08:52:46;;;;;;;2.50;2.30;;;11.30;94.60;;;;;;4959618;28;20682;-85
2024/01/07 08:55:15;;;;;;;6.13;3.10;;;11.40;94.60;;;;;;4953995;28;20194;-85
2024/01/07 08:57:48;;;;;;;13.63;3.93;;;11.40;94.60;;;;;;4954264;28;20234;-85
2024/01/07 09:00:18;;;;;;;6.73;2.93;;;11.40;94.90;;;;;;4956241;28;20241;-84
2024/01/07 09:02:47;;;;;;;3.00;2.77;;;11.40;94.50;;;;;;4953988;28;20250;-82
2024/01/07 09:05:17;;;;;;;13.53;4.20;;;11.50;94.50;;;;;;4950504;28;20206;-82
2024/01/07 09:07:45;;;;;;;2.90;2.63;;;11.50;94.60;;;;;;4957583;28;20716;-83
2024/01/07 09:10:14;;;;;;;2.73;2.23;;;11.40;94.50;;;;;;4957685;28;20202;-83
2024/01/07 09:12:43;;;;;;;2.77;2.53;;;11.50;94.50;;;;;;4955540;28;20269;-84
2024/01/07 09:15:12;;;;;;;2.40;2.20;;;11.50;94.50;;;;;;4958787;28;20210;-83
2024/01/07 09:17:40;;;;;;;3.87;2.13;;;11.50;94.50;;;;;;4961320;28;20552;-83
2024/01/07 09:20:11;;;;;;;3.80;2.83;;;11.60;94.50;;;;;;4953160;28;20182;-82
2024/01/07 09:22:41;;;;;;;2.70;1.97;;;11.60;94.50;;;;;;4957472;28;20219;-83
2024/01/07 09:25:10;;;;;;;2.60;1.77;;;11.60;94.50;;;;;;4953417;28;20280;-82
2024/01/07 09:27:39;;;;;;;2.00;1.80;;;11.70;94.40;;;;;;4953132;28;20215;-86
2024/01/07 09:30:10;;;;;;;4.87;3.90;;;11.70;94.40;;;;;;4946366;28;20203;-85
2024/01/07 09:32:39;;;;;;;2.93;2.43;;;11.70;94.50;;;;;;4950063;28;20644;-90
2024/01/07 09:35:09;;;;;;;4.97;3.60;;;11.70;94.40;;;;;;4954317;28;20202;-87
2024/01/07 09:37:37;;;;;;;2.60;2.40;;;11.70;94.40;;;;;;4950343;28;20207;-87
2024/01/07 09:40:09;;;;;;;2.90;2.67;;;11.70;94.30;;;;;;4951831;28;20706;-85
2024/01/07 09:42:38;;;;;;;2.33;2.00;;;11.80;94.40;;;;;;4950944;28;20239;-80
2024/01/07 09:45:07;;;;;;;2.57;1.83;;;11.80;94.40;;;;;;4953561;28;20317;-81
2024/01/07 09:47:37;;;;;;;3.37;3.07;;;11.80;94.40;;;;;;4950467;28;20206;-81
2024/01/07 09:50:06;;;;;;;4.83;2.20;;;11.80;94.40;;;;;;4946056;28;20210;-79
2024/01/07 09:52:35;;;;;;;1.80;1.70;;;11.80;94.30;;;;;;4949833;28;20205;-81
2024/01/07 09:55:05;;;;;;;6.40;2.73;;;11.90;94.30;;;;;;4948323;28;20616;-78
2024/01/07 09:57:35;;;;;;;2.57;1.37;;;11.80;94.70;;;;;;4941468;28;20213;-79
2024/01/07 10:00:05;;;;;;;2.80;1.67;;;11.80;94.30;;;;;;4947202;28;20316;-79
2024/01/07 10:02:35;;;;;;;5.30;2.43;;;11.90;94.30;;;;;;4952214;28;20241;-81
2024/01/07 10:05:04;;;;;;;2.43;1.93;;;11.80;94.20;;;;;;4952222;28;20206;-81
2024/01/07 10:07:33;;;;;;;1.87;1.77;;;11.80;94.20;;;;;;4961818;28;20218;-81
2024/01/07 10:10:13;;;;;;;8.23;5.13;;;11.90;94.20;;;;;;4958426;28;20285;-81
2024/01/07 10:12:45;;;;;;;3.73;2.77;;;11.90;94.10;;;;;;4955290;28;20253;-83
2024/01/07 10:15:14;;;;;;;3.70;2.73;;;11.90;94.10;;;;;;4950940;28;20406;-84
2024/01/07 10:17:46;;;;;;;4.40;2.43;;;11.90;94.00;;;;;;4951139;28;20277;-81
2024/01/07 10:20:17;;;;;;;8.47;3.80;;;11.80;94.00;;;;;;4962045;28;20605;-83
2024/01/07 10:22:51;;;;;;;7.60;2.40;;;11.80;94.00;;;;;;4957970;28;20300;-88
2024/01/07 10:25:20;;;;;;;8.03;2.97;;;11.80;94.00;;;;;;4958462;28;20207;-86
2024/01/07 10:28:10;;;;;;;2.87;1.73;;;11.90;93.90;;;;;;4956771;28;20690;-87
2024/01/07 10:30:49;;;;;;;6.83;4.10;;;11.90;93.90;;;;;;4954488;28;20202;-86
2024/01/07 10:33:19;;;;;;;6.07;4.20;;;11.80;93.90;;;;;;4949701;28;20202;-89
2024/01/07 10:35:54;;;;;;;2.33;2.13;;;11.90;94.10;;;;;;4960468;28;20212;-87
2024/01/07 10:38:23;;;;;;;5.27;2.73;;;11.90;93.80;;;;;;4956495;28;20198;-84
2024/01/07 10:41:03;;;;;;;6.03;3.83;;;11.90;93.80;;;;;;4960927;28;20211;-89
2024/01/07 10:43:37;;;;;;;2.97;2.73;;;11.90;93.90;;;;;;4959903;28;20685;-88
2024/01/07 10:46:06;;;;;;;5.47;3.33;;;11.90;94.00;;;;;;4960436;28;20619;-89
2024/01/07 10:48:39;;;;;;;6.70;2.53;;;11.80;93.90;;;;;;4956117;28;20230;-91
2024/01/07 10:51:09;;;;;;;2.47;2.03;;;11.80;93.90;;;;;;4965550;28;20206;-93
2024/01/07 10:53:43;;;;;;;4.57;2.27;;;11.80;93.90;;;;;;4966356;28;20194;-93
2024/01/07 10:56:14;;;;;;;3.37;2.63;;;11.80;93.90;;;;;;4968896;28;20205;-91
2024/01/07 10:58:45;;;;;;;5.10;2.43;;;11.90;94.00;;;;;;4960468;28;20210;-94
2024/01/07 11:01:14;;;;;;;4.17;2.67;;;11.90;94.00;;;;;;4968046;28;20258;-93
2024/01/07 11:03:52;;;;;;;1.50;1.40;;;11.90;94.10;;;;;;4956550;28;20313;-92
2024/01/07 11:06:29;;;;;;;1.97;1.77;;;11.90;94.00;;;;;;4959363;28;20206;-91
2024/01/07 11:09:10;;;;;;;2.77;2.57;;;11.90;94.00;;;;;;4955687;28;20678;-92
2024/01/07 11:11:42;;;;;;;6.00;2.83;;;11.90;94.10;;;;;;4956690;28;20198;-89
2024/01/07 11:14:39;;;;;;;3.57;2.17;;;11.90;94.10;;;;;;4948629;28;20198;-86
2024/01/07 11:17:08;;;;;;;6.70;3.07;;;11.80;94.40;;;;;;4952589;28;20301;-83
2024/01/07 11:19:37;;;;;;;2.20;2.07;;;11.80;94.50;;;;;;4956038;28;20209;-84
2024/01/07 11:22:24;;;;;;;4.07;1.30;;;11.90;94.80;;;;;;4951467;28;20206;-85
2024/01/07 11:24:58;;;;;;;5.63;2.83;;;11.90;94.40;;;;;;4951791;28;20269;-82
2024/01/07 11:27:30;;;;;;;4.27;2.83;;;11.90;94.50;;;;;;4952554;28;20202;-84
2024/01/07 11:30:06;;;;;;;5.70;3.00;;;11.90;94.40;;;;;;4949065;28;20213;-83
2024/01/07 11:32:35;;;;;;;3.73;2.00;;;11.90;94.40;;;;;;4951264;28;20202;-82
2024/01/07 11:35:05;;;;;;;3.47;2.77;;;12.00;94.50;;;;;;4952792;28;20230;-83
2024/01/07 11:37:34;;;;;;;1.73;1.63;;;12.10;94.50;;;;;;4944349;28;20202;-83
2024/01/07 11:40:07;;;;;;;1.80;1.70;;;12.20;94.50;;;;;;4949721;28;20206;-82
2024/01/07 11:42:35;;;;;;;2.93;2.10;;;12.30;94.50;;;;;;4949253;28;20701;-82
2024/01/07 11:45:07;;;;;;;2.67;1.73;;;12.50;94.40;;;;;;4947906;28;20321;-82
2024/01/07 11:47:40;;;;;;;1.67;1.40;;;12.70;94.50;;;;;;4948104;28;20207;-82
2024/01/07 11:50:12;;;;;;;2.20;2.10;;;12.80;94.30;;;;;;4946525;28;20230;-83
2024/01/07 11:52:43;;;;;;;1.03;1.03;;;13.00;94.30;;;;;;4945400;28;20703;-83
2024/01/07 11:55:12;;;;;;;3.90;2.63;;;13.20;94.50;;;;;;4947882;28;20577;-82
2024/01/07 11:57:43;;;;;;;2.70;1.87;;;13.30;93.90;;;;;;4945648;28;20206;-82
2024/01/07 12:00:16;;;;;;;3.57;2.13;;;13.30;93.80;;;;;;4952395;28;20233;-83
2024/01/07 12:02:47;;;;;;;3.67;2.63;;;13.30;93.40;;;;;;4947351;28;20206;-82
2024/01/07 12:05:16;;;;;;;1.90;1.77;;;13.20;93.30;;;;;;4951771;28;21274;-81
2024/01/07 12:07:49;;;;;;;1.97;1.87;;;13.20;93.20;;;;;;4951233;28;20198;-82
2024/01/07 12:10:17;;;;;;;2.00;1.73;;;13.10;93.00;;;;;;4956501;28;20212;-82
2024/01/07 12:12:47;;;;;;;3.03;2.23;;;13.00;93.00;;;;;;4955137;28;20194;-83
2024/01/07 12:15:19;;;;;;;4.93;2.37;;;13.00;92.90;;;;;;4952597;28;20206;-83
2024/01/07 12:17:58;;;;;;;2.43;1.80;;;12.90;92.80;;;;;;4953054;28;20618;-84
2024/01/07 12:20:27;;;;;;;2.40;2.03;;;12.80;92.50;;;;;;4957143;28;20631;-82
2024/01/07 12:23:06;;;;;;;3.13;2.37;;;12.80;92.50;;;;;;4953800;29;20203;-83
2024/01/07 12:25:34;;;;;;;2.37;1.87;;;12.80;92.60;;;;;;4953041;28;20701;-84
2024/01/07 12:28:03;;;;;;;7.73;2.40;;;12.80;92.60;;;;;;4947317;28;20207;-84
2024/01/07 12:30:34;;;;;;;1.33;1.20;;;12.70;92.80;;;;;;4957906;28;20209;-84
2024/01/07 12:33:06;;;;;;;1.40;1.20;;;12.70;92.80;;;;;;4953953;28;20198;-82
2024/01/07 12:35:36;;;;;;;4.90;2.13;;;12.70;92.80;;;;;;4948401;28;20210;-84
2024/01/07 12:38:06;;;;;;;2.90;1.93;;;12.60;92.80;;;;;;4952296;28;20281;-83
2024/01/07 12:40:39;;;;;;;1.43;1.33;;;12.60;92.70;;;;;;4949327;28;20195;-81
2024/01/07 12:43:07;;;;;;;1.67;1.57;;;12.60;92.60;;;;;;4950466;28;20583;-83
2024/01/07 12:45:37;;;;;;;2.57;1.57;;;12.60;92.60;;;;;;4948613;28;20368;-83
2024/01/07 12:48:07;;;;;;;1.50;1.40;;;12.60;92.70;;;;;;4953544;28;20210;-82
2024/01/07 12:50:36;;;;;;;1.87;1.77;;;12.60;92.90;;;;;;4952255;28;20658;-83
2024/01/07 12:53:05;;;;;;;1.20;1.07;;;12.50;92.70;;;;;;4955237;28;20198;-81
2024/01/07 12:55:35;;;;;;;1.80;1.67;;;12.60;92.70;;;;;;4951796;28;20210;-83
2024/01/07 12:58:04;;;;;;;1.27;1.10;;;12.50;92.70;;;;;;4949453;28;20241;-82
2024/01/07 13:00:35;;;;;;;0.57;0.57;;;12.50;92.70;;;;;;4947052;28;20229;-82